Fish Lake Valley, Nevada Weather observations

Data are for 10 minute period ending at time listed.
 Day   Time    Ave.   Ave.  Ave.  Vector   Max.   Stn.    Total    Solar   Ave.  
  of    of     Air    Rel.  Wind   Wind    Wind   Baro.  Precip.   Rad.    Soil  
Year   Day     Temp.  Hum.  Speed  Dir.    Gust   Pres.                    Temp. 
2017   (PST)    F      %     mph   deg.    mph     mb.     in.     W/m2     F    
--------------------------------------------------------------------------------- 
  80   19:50   53.7    33    1.4   136      3.8   848.2    0.00       2    52.6  
  80   20:00   53.0    33    1.5   286      3.6   848.3    0.00       2    52.7  
  80   20:10   53.6    33    1.8    90      5.1   848.5    0.00       2    52.7  
  80   20:20   53.9    33    3.2    63      5.4   848.5    0.00       2    52.7  
  80   20:30   49.7    39    2.3   211      6.2   848.5    0.00       2    52.7  
  80   20:40   48.7    42    5.8   184      9.2   848.5    0.00       2    52.7  
  80   20:50   48.7    44    8.3   148     10.9   848.5    0.00       2    52.8  
  80   21:00   47.0    48    8.6   105     14.5   848.5    0.00       2    52.8  
  80   21:10   53.5    31    8.0    78     13.3   848.5    0.00       2    52.8  
  80   21:20   49.7    40    6.5   163     10.0   848.6    0.00       2    52.8  
  80   21:30   50.2    36    9.9   123     16.9   848.6    0.00       2    52.8  
  80   21:40   51.0    35    6.7   170     14.4   848.6    0.00       2    52.8  
  80   21:50   48.6    39    6.0   170     11.4   848.5    0.00       2    52.8  
  80   22:00   48.4    39    7.0   146      9.3   848.5    0.00       2    52.8  
  80   22:10   46.9    42    9.0   122     12.2   848.5    0.00       2    52.8  
  80   22:20   48.3    38   10.4   108     15.8   848.4    0.00       2    52.8  
  80   22:30   49.6    34   13.1   100     19.3   848.3    0.00       2    52.8  
  80   22:40   50.6    33   12.2   101     16.7   848.4    0.00       2    52.8  
  80   22:50   49.6    34   11.4   104     16.2   848.4    0.00       2    52.7  
  80   23:00   50.1    32   12.2    99     17.4   848.3    0.00       2    52.7  
  80   23:10   50.4    32   14.5   100     19.6   848.1    0.00       2    52.7  
  80   23:20   49.9    32   11.9   122     17.8   848.3    0.00       2    52.7  
  80   23:30   49.5    32   11.7   124     17.2   848.3    0.00       2    52.7  
  80   23:40   48.7    33   11.0   129     14.3   848.3    0.00       2    52.6  
  80   23:50   47.1    36    8.7   142     12.5   848.3    0.00       2    52.6  
  81    0:00   48.0    33    6.9   127     11.2   848.1    0.00       2    52.6  
  81    0:10   48.0    32    3.1   134      6.5   848.0    0.00       2    52.6  
  81    0:20   45.4    38    7.3   161     12.8   848.0    0.00       2    52.6  
  81    0:30   43.8    43    9.1   154     11.4   848.0    0.00       2    52.5  
  81    0:40   44.4    44   10.4   173     13.6   848.1    0.00       2    52.5  
  81    0:50   44.1    44    8.3   179     11.2   848.1    0.00       2    52.5  
  81    1:00   44.5    46    9.7   159     11.5   848.1    0.00       2    52.4  
  81    1:10   43.2    50    7.9   162      9.2   848.2    0.00       2    52.4  
  81    1:20   42.5    54    8.0   170     10.4   848.2    0.00       2    52.4  
  81    1:30   43.3    55    6.8   162      9.0   848.3    0.00       2    52.4  
  81    1:40   42.1    60    4.3   183      6.5   848.3    0.00       2    52.3  
  81    1:50   41.8    63    2.3   297      5.0   848.4    0.00       2    52.3  
  81    2:00   41.9    62    1.6   290      4.1   848.4    0.00       2    52.3  
  81    2:10   42.1    64    1.2    32      3.7   848.3    0.00       2    52.2  
  81    2:20   41.9    64    1.0    24      2.4   848.3    0.00       2    52.2  
  81    2:30   39.6    66    1.2   242      2.5   848.2    0.00       2    52.2  
  81    2:40   39.9    66    0.6   144      2.5   848.0    0.00       2    52.1  
  81    2:50   40.5    68    1.0   293      3.5   848.0    0.00       2    52.1  
  81    3:00   39.7    72    1.1   250      2.4   847.9    0.00       2    52.1  
  81    3:10   39.5    73    1.9   252      4.3   847.9    0.00       2    52.0  
  81    3:20   38.5    75    4.0   250      6.0   848.1    0.00       2    52.0  
  81    3:30   38.0    74    2.9   124      4.3   848.0    0.00       2    51.9  
  81    3:40   37.2    74    2.1    78      4.4   848.0    0.00       2    51.9  
  81    3:50   36.5    76    0.9   180      3.3   848.0    0.00       2    51.9  
  81    4:00   38.1    70    2.2   231      4.1   847.9    0.00       2    51.8  
  81    4:10   36.7    77    3.2   213      5.2   848.0    0.00       2    51.8  
  81    4:20   35.5    80    3.7   205      4.8   847.8    0.00       2    51.8  
  81    4:30   34.9    82    5.2   202      6.7   847.8    0.00       2    51.7  
  81    4:40   35.4    82    2.7   171      5.4   847.8    0.00       2    51.7  
  81    4:50   34.4    79    1.6    23      2.8   847.8    0.00       2    51.6  
  81    5:00   34.6    80    0.4   124      4.3   847.8    0.00       2    51.6  
  81    5:10   35.0    80    0.8   284      3.4   847.7    0.00       2    51.6  
  81    5:20   35.1    82    0.3   223      2.6   847.6    0.00       2    51.5  
  81    5:30   35.3    81    2.4   232      5.0   847.6    0.00       2    51.5  
  81    5:40   34.6    83    2.0   246      4.3   847.8    0.00       2    51.4  
  81    5:50   35.3    82    3.9   286      5.1   848.0    0.00       4    51.4  
  81    6:00   34.9    82    1.2   204      3.5   848.0    0.00       6    51.4  
  81    6:10   35.2    82    2.5    60      5.3   848.1    0.00      12    51.3  
  81    6:20   35.3    81    0.4   324      2.7   848.1    0.00      22    51.3  
  81    6:30   35.1    81    2.5   330      5.2   848.1    0.00      30    51.2  
  81    6:40   34.8    82    1.3   270      3.5   848.1    0.00      38    51.2  
  81    6:50   34.4    80    3.0   305      4.2   848.1    0.00      43    51.1  
  81    7:00   34.7    77    2.7   315      3.5   848.0    0.00     153    51.1  
  81    7:10   37.6    71    2.2   319      4.6   848.1    0.00     223    51.0  
  81    7:20   40.0    66    1.2   351      4.3   848.1    0.00     258    51.0  
  81    7:30   41.2    65    3.1   348      6.1   848.2    0.00     294    50.9  
  81    7:40   41.5    62    1.9     1      4.6   848.2    0.00     331    50.9  
  81    7:50   46.6    58    2.3    88      7.0   848.1    0.00     365    50.8  
  81    8:00   49.1    60   13.6   123     19.6   847.8    0.00     400    50.8  
  81    8:10   50.3    57   15.8   126     20.5   847.8    0.00     436    50.8  
  81    8:20   50.9    55   15.5   130     19.5   847.7    0.00     471    50.7  
  81    8:30   51.2    55   17.8   124     22.3   847.6    0.00     508    50.6  
  81    8:40   51.4    54   18.9   120     23.4   847.7    0.00     546    50.6  
  81    8:50   52.2    52   17.4   117     22.3   847.6    0.00     544    50.6  
  81    9:00   53.0    49   19.6   139     24.1   847.4    0.00     614    50.5  
  81    9:10   52.8    48   20.0   135     26.3   847.4    0.00     383    50.5  
  81    9:20   52.1    49   21.3   134     28.0   847.4    0.00     411    50.4  
  81    9:30   52.7    48   22.6   134     27.8   847.3    0.00     630    50.4  
  81    9:40   53.5    46   22.2   138     30.0   847.2    0.00     612    50.3  
  81    9:50   53.4    46   21.7   133     26.8   847.2    0.00     629    50.3  
  81   10:00   54.0    42   20.6   127     26.3   847.2    0.00     556    50.3  
  81   10:10   54.9    37   17.3   134     23.4   847.2    0.00     613    50.2  
  81   10:20   56.0    31   18.9   141     25.9   847.0    0.00     753    50.2  
  81   10:30   55.9    34   19.6   125     27.3   847.0    0.00     762    50.1  
  81   10:40   55.8    39   22.4   118     31.0   846.8    0.00     885    50.1  
  81   10:50   56.0    38   22.2   117     28.1   846.7    0.00     814    50.1  
  81   11:00   56.2    32   20.4   122     28.6   846.7    0.00     881    50.1  
  81   11:10   57.7    28   18.0   137     24.0   846.7    0.00     974    50.0  
  81   11:20   57.8    27   17.3   148     27.0   846.5    0.00     887    50.0  
  81   11:30   57.5    27   16.2   151     25.9   846.5    0.00     856    50.0  
  81   11:40   58.0    27   18.3   143     25.9   846.4    0.00    1097    50.0  
  81   11:50   58.2    28   18.1   161     27.2   846.3    0.00     673    49.9  
  81   12:00   57.4    27   18.1   157     24.0   846.2    0.00     520    49.9  
  81   12:10   56.8    29   18.8   154     25.2   846.2    0.00     450    49.9  
  81   12:20   56.2    32   21.8   144     28.8   846.2    0.00     454    49.9  
  81   12:30   55.8    34   19.8   136     26.8   846.3    0.00     434    49.9  
  81   12:40   55.6    35   21.3   135     26.5   846.2    0.00     525    49.9  
  81   12:50   53.8    39   22.1   135     29.0   846.1    0.00     197    49.9  
  81   13:00   52.6    38   21.1   138     27.0   846.0    0.00     197    49.9  
  81   13:10   52.4    40   19.8   131     23.5   846.1    0.00     257    49.9  
  81   13:20   52.2    42   19.8   120     27.1   846.1    0.00     577    50.0  
  81   13:30   52.0    38   19.1   114     24.1   846.0    0.00     388    50.0  
  81   13:40   52.4    37   14.4   109     20.4   845.9    0.00     313    50.0  
  81   13:50   53.3    34   12.5   120     17.3   845.8    0.00     571    50.1  
  81   14:00   54.4    32   12.5   130     20.7   845.8    0.00     413    50.1  
  81   14:10   53.9    33   12.4   107     17.8   845.7    0.00     351    50.1  
  81   14:20   53.5    34   10.8   104     16.1   845.7    0.00     341    50.1  
  81   14:30   53.7    35   10.4   126     14.3   845.7    0.00     315    50.2  
  81   14:40   53.3    34   10.8   119     18.7   845.7    0.00     286    50.2  
  81   14:50   53.5    36   11.6   164     16.6   845.7    0.00     230    50.3  
  81   15:00   51.6    41   16.5   170     26.0   845.8    0.00     195    50.3  
  81   15:10   49.9    51   12.8   164     21.9   845.6    0.00     252    50.3  
  81   15:20   51.6    42    9.5   139     13.9   845.3    0.00     668    50.4  
  81   15:30   53.1    40   10.8   126     14.9   845.1    0.00     678    50.4  
  81   15:40   53.2    42    9.6    91     16.5   845.1    0.00     651    50.4  
  81   15:50   52.2    43    9.2    60     19.3   845.4    0.00     156    50.5  
  81   16:00   50.5    46   12.9    38     22.3   845.7    0.00     104    50.5  
  81   16:10   47.4    54   18.9    34     29.0   846.0    0.00      74    50.5  
  81   16:20   46.8    53   17.0    21     24.3   846.4    0.00      37    50.6  
  81   16:30   46.8    51   16.3     8     27.5   846.4    0.00      47    50.6  
  81   16:40   46.5    50    3.1   354     20.8   846.3    0.00      49    50.6  
  81   16:50   47.0    51    4.0   179     11.9   846.3    0.00      47    50.7  
  81   17:00   45.5    62   11.6   190     16.6   846.5    0.00      34    50.7  
  81   17:10   43.8    70   13.1   182     16.5   846.6    0.00      23    50.8  
  81   17:20   43.3    70   12.9   178     15.5   846.8    0.00      16    50.8  
  81   17:30   43.0    69   12.3   171     15.7   847.0    0.00      13    50.8  
  81   17:40   43.1    66   10.6   161     13.1   847.1    0.00      17    50.9  
  81   17:50   43.0    68    9.3   157     11.7   847.2    0.00      27    50.9  
  81   18:00   42.0    76    7.5   144      9.2   847.3    0.00      19    50.9  
  81   18:10   41.7    75    6.5   154      9.5   847.4    0.00       4    51.0  
  81   18:20   42.2    69    6.2   140     10.9   847.4    0.00       3    51.0  
  81   18:30   42.1    72   11.1   354     15.0   847.6    0.00       2    51.0  
  81   18:40   41.2    80   10.1   353     13.6   847.7    0.00       2    51.1  
  81   18:50   40.7    82    7.4   353     10.3   847.8    0.01       2    51.1  
  81   19:00   40.4    83    5.1   323      7.6   847.8    0.01       2    51.1  
  81   19:10   40.4    85    6.4   318      8.2   847.9    0.00       2    51.1  
  81   19:20   40.0    85    7.1   290      9.6   847.9    0.00       2    51.2  
  81   19:30   39.0    85    7.3   258     10.2   848.0    0.00       2    51.2  
  81   19:40   39.3    86    7.1   278      9.6   848.1    0.00       2    51.2  

Return to Fish Lake Valley, Nevada graphs page.


Western Regional Climate Center,wrcc@dri.edu